createdAt,value
2018-06-09T00:02:19.132Z,20.10
2018-06-09T00:04:48.068Z,20.00
2018-06-09T00:07:16.836Z,20.00
2018-06-09T00:09:45.553Z,20.00
2018-06-09T00:12:14.210Z,19.90
2018-06-09T00:14:42.878Z,19.80
2018-06-09T00:17:11.526Z,19.80
2018-06-09T00:19:40.195Z,19.70
2018-06-09T00:22:08.827Z,19.70
2018-06-09T00:24:37.515Z,19.60
2018-06-09T00:27:06.234Z,19.50
2018-06-09T00:29:34.886Z,19.50
2018-06-09T00:32:03.830Z,19.50
2018-06-09T00:34:32.642Z,19.50
2018-06-09T00:37:01.494Z,19.60
2018-06-09T00:39:30.310Z,19.60
2018-06-09T00:41:59.163Z,19.70
2018-06-09T00:44:28.192Z,19.60
2018-06-09T00:46:57.016Z,19.60
2018-06-09T00:49:25.771Z,19.70
2018-06-09T00:51:54.409Z,19.70
2018-06-09T00:54:23.087Z,19.70
2018-06-09T00:56:51.722Z,19.60
2018-06-09T00:59:20.342Z,19.60
2018-06-09T01:01:49.035Z,19.60
2018-06-09T01:04:17.765Z,19.50
2018-06-09T01:06:46.605Z,19.60
2018-06-09T01:09:15.336Z,19.50
2018-06-09T01:11:44.000Z,19.50
2018-06-09T01:14:12.644Z,19.50
2018-06-09T01:16:41.347Z,19.50
2018-06-09T01:19:10.088Z,19.40
2018-06-09T01:21:38.754Z,19.40
2018-06-09T01:24:07.471Z,19.40
2018-06-09T01:26:36.155Z,19.30
2018-06-09T01:29:04.848Z,19.30
2018-06-09T01:31:33.525Z,19.20
2018-06-09T01:34:02.279Z,19.20
2018-06-09T01:36:31.077Z,19.20
2018-06-09T01:38:59.993Z,19.10
2018-06-09T01:41:28.870Z,19.10
2018-06-09T01:43:57.786Z,19.00
2018-06-09T01:46:26.591Z,19.10
2018-06-09T01:48:55.318Z,19.00
2018-06-09T01:51:23.970Z,18.90
2018-06-09T01:53:52.661Z,18.90
2018-06-09T01:56:21.295Z,18.80
2018-06-09T01:58:49.924Z,18.80
2018-06-09T02:01:18.629Z,18.70
2018-06-09T02:03:47.406Z,18.70
2018-06-09T02:06:16.326Z,18.70
2018-06-09T02:08:45.011Z,18.60
2018-06-09T02:11:13.705Z,18.60
2018-06-09T02:13:42.339Z,18.50
2018-06-09T02:16:10.984Z,18.50
2018-06-09T02:18:39.650Z,18.50
2018-06-09T02:21:08.322Z,18.50
2018-06-09T02:23:37.037Z,18.50
2018-06-09T02:26:05.702Z,18.50
2018-06-09T02:28:34.412Z,18.40
2018-06-09T02:31:03.106Z,18.40
2018-06-09T02:33:31.892Z,18.30
2018-06-09T02:36:00.699Z,18.30
2018-06-09T02:38:29.584Z,18.30
2018-06-09T02:40:58.349Z,18.30
2018-06-09T02:43:27.162Z,18.30
2018-06-09T02:45:56.506Z,18.20
2018-06-09T02:48:25.213Z,18.20
2018-06-09T02:50:53.916Z,18.20
2018-06-09T02:53:22.555Z,18.20
2018-06-09T02:55:51.241Z,18.20
2018-06-09T02:58:19.948Z,18.10
2018-06-09T03:03:17.033Z,18.10
2018-06-09T03:05:45.720Z,18.00
2018-06-09T03:08:14.415Z,18.00
2018-06-09T03:10:43.071Z,18.00
2018-06-09T03:13:11.723Z,18.00
2018-06-09T03:15:40.836Z,18.00
2018-06-09T03:18:09.485Z,18.00
2018-06-09T03:20:38.137Z,18.00
2018-06-09T03:23:06.808Z,18.00
2018-06-09T03:25:35.459Z,18.00
2018-06-09T03:28:04.198Z,18.00
2018-06-09T03:30:32.952Z,18.00
2018-06-09T03:33:01.763Z,17.90
2018-06-09T03:35:30.578Z,17.90
2018-06-09T03:37:59.394Z,17.90
2018-06-09T03:40:28.264Z,17.90
2018-06-09T03:42:57.703Z,18.00
2018-06-09T03:45:26.514Z,18.00
2018-06-09T03:47:55.240Z,18.10
2018-06-09T03:50:23.993Z,18.10
2018-06-09T03:52:52.678Z,18.20
2018-06-09T03:57:49.647Z,18.30
2018-06-09T04:00:18.427Z,18.30
2018-06-09T04:02:47.162Z,18.40
2018-06-09T04:05:15.966Z,18.40
2018-06-09T04:07:44.788Z,18.50
2018-06-09T04:10:13.457Z,18.70
2018-06-09T04:12:42.157Z,18.70
2018-06-09T04:15:10.811Z,18.80
2018-06-09T04:17:39.491Z,18.90
2018-06-09T04:20:08.107Z,19.00
2018-06-09T04:22:36.796Z,19.10
2018-06-09T04:25:05.483Z,19.20
2018-06-09T04:27:34.135Z,19.30
2018-06-09T04:30:02.855Z,19.30
2018-06-09T04:32:31.656Z,19.30
2018-06-09T04:35:00.515Z,19.30
2018-06-09T04:37:29.327Z,19.40
2018-06-09T04:39:58.243Z,19.50
2018-06-09T04:42:26.945Z,19.60
2018-06-09T04:44:55.668Z,19.60
2018-06-09T04:47:24.370Z,19.80
2018-06-09T04:49:53.141Z,19.90
2018-06-09T04:52:21.771Z,19.90
2018-06-09T04:54:50.479Z,20.00
2018-06-09T04:57:19.217Z,20.20
2018-06-09T04:59:47.958Z,20.30
2018-06-09T05:02:16.778Z,20.50
2018-06-09T05:04:45.542Z,20.60
2018-06-09T05:07:14.390Z,20.70
2018-06-09T05:09:43.055Z,20.90
2018-06-09T05:12:11.763Z,21.10
2018-06-09T05:17:09.363Z,21.30
2018-06-09T05:19:38.007Z,21.40
2018-06-09T05:22:08.027Z,21.50
2018-06-09T05:24:36.895Z,21.60
2018-06-09T05:27:05.871Z,21.60
2018-06-09T05:29:34.594Z,21.70
2018-06-09T05:32:03.378Z,21.80
2018-06-09T05:34:32.241Z,21.80
2018-06-09T05:37:01.998Z,21.80
2018-06-09T05:39:30.979Z,22.00
2018-06-09T05:41:59.758Z,22.00
2018-06-09T05:44:28.753Z,22.10
2018-06-09T05:46:58.276Z,22.20
2018-06-09T05:49:27.226Z,22.30
2018-06-09T05:51:56.001Z,22.20
2018-06-09T05:54:24.767Z,22.30
2018-06-09T05:56:53.591Z,22.50
2018-06-09T05:59:22.213Z,22.60
2018-06-09T06:01:50.899Z,22.70
2018-06-09T06:04:19.637Z,22.80
2018-06-09T06:06:48.379Z,22.70
2018-06-09T06:09:17.214Z,22.80
2018-06-09T06:11:46.503Z,22.90
2018-06-09T06:14:15.333Z,23.10
2018-06-09T06:16:44.071Z,23.30
2018-06-09T06:19:12.748Z,23.50
2018-06-09T06:21:41.419Z,23.60
2018-06-09T06:24:10.149Z,23.90
2018-06-09T06:26:38.799Z,24.00
2018-06-09T06:29:07.518Z,24.20
2018-06-09T06:31:36.200Z,24.10
2018-06-09T06:34:04.985Z,24.40
2018-06-09T06:39:02.173Z,24.80
2018-06-09T06:41:32.287Z,25.00
2018-06-09T06:44:01.348Z,25.30
2018-06-09T06:46:30.814Z,25.50
2018-06-09T06:48:59.695Z,25.30
2018-06-09T06:51:29.508Z,25.40
2018-06-09T06:53:58.597Z,25.40
2018-06-09T06:56:27.800Z,25.30
2018-06-09T06:58:56.753Z,25.30
2018-06-09T07:01:25.427Z,25.30
2018-06-09T07:03:54.119Z,25.00
2018-06-09T07:06:22.802Z,24.90
2018-06-09T07:08:52.126Z,24.90
2018-06-09T07:11:20.864Z,25.00
2018-06-09T07:13:49.625Z,25.10
2018-06-09T07:16:18.411Z,25.10
2018-06-09T07:18:47.333Z,25.20
2018-06-09T07:21:16.220Z,25.10
2018-06-09T07:23:44.979Z,25.10
2018-06-09T07:26:13.688Z,25.20
2018-06-09T07:28:42.358Z,25.40
2018-06-09T07:31:11.004Z,25.30
2018-06-09T07:36:07.950Z,25.50
2018-06-09T07:38:36.723Z,25.90
2018-06-09T07:41:05.554Z,26.50
2018-06-09T07:43:34.262Z,27.00
2018-06-09T07:46:03.065Z,27.20
2018-06-09T07:48:31.754Z,27.50
2018-06-09T07:51:00.623Z,28.00
2018-06-09T07:53:29.620Z,28.60
2018-06-09T07:55:58.726Z,29.00
2018-06-09T07:58:28.020Z,29.40
2018-06-09T08:00:56.705Z,30.00
2018-06-09T08:03:25.385Z,30.70
2018-06-09T08:05:54.172Z,30.70
2018-06-09T08:08:23.298Z,31.10
2018-06-09T08:10:52.097Z,31.80
2018-06-09T08:13:20.781Z,32.00
2018-06-09T08:15:49.639Z,32.10
2018-06-09T08:18:18.419Z,32.60
2018-06-09T08:20:47.149Z,32.70
2018-06-09T08:23:15.916Z,32.80
2018-06-09T08:25:44.907Z,33.00
2018-06-09T08:28:13.695Z,33.40
2018-06-09T08:30:42.382Z,33.10
2018-06-09T08:33:11.071Z,33.50
2018-06-09T08:35:39.764Z,33.30
2018-06-09T08:38:08.670Z,33.50
2018-06-09T08:40:37.391Z,33.50
2018-06-09T08:43:06.095Z,34.00
2018-06-09T08:45:35.041Z,34.50
2018-06-09T08:48:05.232Z,34.80
2018-06-09T08:50:33.940Z,34.30
2018-06-09T08:53:02.853Z,34.10
2018-06-09T08:55:31.577Z,34.30
2018-06-09T08:58:00.698Z,35.50
2018-06-09T09:00:29.581Z,35.20
2018-06-09T09:02:58.591Z,35.20
2018-06-09T09:05:27.448Z,34.20
2018-06-09T09:07:56.314Z,33.20
2018-06-09T09:10:24.980Z,33.40
2018-06-09T09:12:53.614Z,34.00
2018-06-09T09:15:22.346Z,34.30
2018-06-09T09:17:51.073Z,33.80
2018-06-09T09:20:19.823Z,33.50
2018-06-09T09:22:48.700Z,32.70
2018-06-09T09:25:17.458Z,32.90
2018-06-09T09:27:46.139Z,33.10
2018-06-09T09:30:14.895Z,32.80
2018-06-09T09:32:43.561Z,33.50
2018-06-09T09:35:12.213Z,34.10
2018-06-09T09:37:40.850Z,35.00
2018-06-09T09:40:09.538Z,34.90
2018-06-09T09:42:38.213Z,35.10
2018-06-09T09:45:07.010Z,34.20
2018-06-09T09:50:04.154Z,31.70
2018-06-09T09:52:32.848Z,31.70
2018-06-09T09:55:01.674Z,31.60
2018-06-09T09:57:30.730Z,31.60
2018-06-09T09:59:59.549Z,32.40
2018-06-09T10:02:28.361Z,33.80
2018-06-09T10:04:57.149Z,34.40
2018-06-09T10:07:26.427Z,34.10
2018-06-09T10:09:55.150Z,33.50
2018-06-09T10:12:23.852Z,33.10
2018-06-09T10:14:52.505Z,33.30
2018-06-09T10:17:21.135Z,34.30
2018-06-09T10:19:49.828Z,34.40
2018-06-09T10:22:18.498Z,33.80
2018-06-09T10:24:47.190Z,33.20
2018-06-09T10:27:15.943Z,33.50
2018-06-09T10:29:44.562Z,33.50
2018-06-09T10:32:13.194Z,33.40
2018-06-09T10:34:41.870Z,33.00
2018-06-09T10:37:10.686Z,33.10
2018-06-09T10:39:39.322Z,33.60
2018-06-09T10:42:07.981Z,34.00
2018-06-09T10:44:36.621Z,34.00
2018-06-09T10:47:05.291Z,33.40
2018-06-09T10:49:34.088Z,33.30
2018-06-09T10:52:02.834Z,32.90
2018-06-09T10:54:31.607Z,32.80
2018-06-09T10:57:00.544Z,32.80
2018-06-09T10:59:29.433Z,32.90
2018-06-09T11:01:58.751Z,33.10
2018-06-09T11:04:27.488Z,33.40
2018-06-09T11:06:56.222Z,33.00
2018-06-09T11:09:24.914Z,32.50
2018-06-09T11:11:53.578Z,32.70
2018-06-09T11:14:22.585Z,32.70
2018-06-09T11:16:51.363Z,32.70
2018-06-09T11:19:20.032Z,32.20
2018-06-09T11:21:48.966Z,32.10
2018-06-09T11:24:17.829Z,32.10
2018-06-09T11:26:46.561Z,32.40
2018-06-09T11:29:15.470Z,32.40
2018-06-09T11:31:44.108Z,31.60
2018-06-09T11:34:12.790Z,31.10
2018-06-09T11:36:41.478Z,31.00
2018-06-09T11:39:10.098Z,31.10
2018-06-09T11:41:38.746Z,31.10
2018-06-09T11:44:07.615Z,30.70
2018-06-09T11:46:36.303Z,30.60
2018-06-09T11:49:04.971Z,30.40
2018-06-09T11:51:33.746Z,30.70
2018-06-09T11:54:02.511Z,30.60
2018-06-09T11:56:31.292Z,30.30
2018-06-09T11:59:00.181Z,30.20
2018-06-09T12:01:28.999Z,30.20
2018-06-09T12:03:58.374Z,30.20
2018-06-09T12:06:27.094Z,30.00
2018-06-09T12:11:24.271Z,29.90
2018-06-09T12:13:52.933Z,30.00
2018-06-09T12:16:21.567Z,30.20
2018-06-09T12:18:50.490Z,29.90
2018-06-09T12:21:19.166Z,29.70
2018-06-09T12:23:47.930Z,29.70
2018-06-09T12:26:16.783Z,29.60
2018-06-09T12:28:45.476Z,29.60
2018-06-09T12:31:14.218Z,29.50
2018-06-09T12:33:42.898Z,29.40
2018-06-09T12:36:11.792Z,29.50
2018-06-09T12:38:40.464Z,29.60
2018-06-09T12:41:09.146Z,29.50
2018-06-09T12:43:37.816Z,29.60
2018-06-09T12:46:06.479Z,29.50
2018-06-09T12:48:35.760Z,29.70
2018-06-09T12:51:04.472Z,29.70
2018-06-09T12:53:33.598Z,29.60
2018-06-09T12:56:02.495Z,29.60
2018-06-09T12:58:31.332Z,29.80
2018-06-09T13:01:00.283Z,29.60
2018-06-09T13:03:29.320Z,29.60
2018-06-09T13:05:58.383Z,29.70
2018-06-09T13:08:27.212Z,29.80
2018-06-09T13:10:55.950Z,29.80
2018-06-09T13:13:24.585Z,29.80
2018-06-09T13:15:53.275Z,29.70
2018-06-09T13:18:21.960Z,29.90
2018-06-09T13:20:50.632Z,30.00
2018-06-09T13:23:19.298Z,30.10
2018-06-09T13:25:48.137Z,30.20
2018-06-09T13:28:16.949Z,30.30
2018-06-09T13:30:45.722Z,30.40
2018-06-09T13:33:14.463Z,30.20
2018-06-09T13:35:43.492Z,30.30
2018-06-09T13:38:13.111Z,30.40
2018-06-09T13:40:41.851Z,30.50
2018-06-09T13:45:38.964Z,30.30
2018-06-09T13:48:07.603Z,30.00
2018-06-09T13:50:36.250Z,29.90
2018-06-09T13:55:33.340Z,30.20
2018-06-09T13:58:02.681Z,30.20
2018-06-09T14:00:31.500Z,30.20
2018-06-09T14:03:00.296Z,30.20
2018-06-09T14:05:29.327Z,30.10
2018-06-09T14:07:58.357Z,30.00
2018-06-09T14:10:27.181Z,29.90
2018-06-09T14:12:56.877Z,30.00
2018-06-09T14:15:25.642Z,29.80
2018-06-09T14:17:54.306Z,29.90
2018-06-09T14:20:23.039Z,29.80
2018-06-09T14:22:51.678Z,29.80
2018-06-09T14:25:20.280Z,29.80
2018-06-09T14:27:49.140Z,29.90
2018-06-09T14:30:17.837Z,29.80
2018-06-09T14:32:46.676Z,29.60
2018-06-09T14:35:15.424Z,29.50
2018-06-09T14:37:44.170Z,29.60
2018-06-09T14:40:12.831Z,29.70
2018-06-09T14:42:41.485Z,29.80
2018-06-09T14:45:10.335Z,29.80
2018-06-09T14:47:39.133Z,29.80
2018-06-09T14:50:08.076Z,29.80
2018-06-09T14:52:37.002Z,29.80
2018-06-09T14:55:05.720Z,29.70
2018-06-09T14:57:34.370Z,29.60
2018-06-09T15:00:03.154Z,29.60
2018-06-09T15:02:31.905Z,29.70
2018-06-09T15:05:00.662Z,29.80
2018-06-09T15:07:29.487Z,29.70
2018-06-09T15:10:00.373Z,29.60
2018-06-09T15:12:29.196Z,29.60
2018-06-09T15:14:58.108Z,29.50
2018-06-09T15:17:27.982Z,29.40
2018-06-09T15:19:56.926Z,29.30
2018-06-09T15:24:54.056Z,29.40
2018-06-09T15:27:22.689Z,29.30
2018-06-09T15:29:51.686Z,29.00
2018-06-09T15:32:20.783Z,28.70
2018-06-09T15:34:49.635Z,28.00
2018-06-09T15:37:18.394Z,27.40
2018-06-09T15:39:47.079Z,27.30
2018-06-09T15:42:16.161Z,27.10
2018-06-09T15:44:44.883Z,27.00
2018-06-09T15:47:13.664Z,26.90
2018-06-09T15:49:42.461Z,26.70
2018-06-09T15:52:11.144Z,26.70
2018-06-09T15:54:39.785Z,26.60
2018-06-09T15:57:10.488Z,26.70
2018-06-09T15:59:39.426Z,26.50
2018-06-09T16:02:08.133Z,26.30
2018-06-09T16:04:36.913Z,26.10
2018-06-09T16:07:05.624Z,26.10
2018-06-09T16:09:34.289Z,26.10
2018-06-09T16:12:03.880Z,26.00
2018-06-09T16:14:33.231Z,25.90
2018-06-09T16:17:03.983Z,25.70
2018-06-09T16:19:32.742Z,25.40
2018-06-09T16:22:01.509Z,25.40
2018-06-09T16:24:30.604Z,25.50
2018-06-09T16:26:59.564Z,25.50
2018-06-09T16:29:28.562Z,25.50
2018-06-09T16:31:57.308Z,25.40
2018-06-09T16:34:26.910Z,25.40
2018-06-09T16:36:55.744Z,25.50
2018-06-09T16:39:24.438Z,25.50
2018-06-09T16:41:53.096Z,25.50
2018-06-09T16:44:22.402Z,25.60
2018-06-09T16:46:51.173Z,25.50
2018-06-09T16:49:19.982Z,25.50
2018-06-09T16:51:48.785Z,25.30
2018-06-09T16:54:17.749Z,25.10
2018-06-09T16:56:46.551Z,25.20
2018-06-09T16:59:15.317Z,25.20
2018-06-09T17:01:44.162Z,25.30
2018-06-09T17:04:12.787Z,25.10
2018-06-09T17:06:41.568Z,25.00
2018-06-09T17:09:10.548Z,24.80
2018-06-09T17:11:39.447Z,24.80
2018-06-09T17:14:08.146Z,24.70
2018-06-09T17:16:36.886Z,24.50
2018-06-09T17:19:06.512Z,24.40
2018-06-09T17:21:35.142Z,24.30
2018-06-09T17:24:03.987Z,24.20
2018-06-09T17:26:32.863Z,24.10
2018-06-09T17:29:01.592Z,24.10
2018-06-09T17:31:30.360Z,24.00
2018-06-09T17:33:59.336Z,24.10
2018-06-09T17:36:28.491Z,24.00
2018-06-09T17:38:57.269Z,24.00
2018-06-09T17:41:26.751Z,23.90
2018-06-09T17:43:56.220Z,24.00
2018-06-09T17:46:25.230Z,24.00
2018-06-09T17:48:53.922Z,24.00
2018-06-09T17:51:22.608Z,23.90
2018-06-09T17:53:51.273Z,23.90
2018-06-09T17:56:19.940Z,23.90
2018-06-09T17:58:49.153Z,23.90
2018-06-09T18:01:17.943Z,23.80
2018-06-09T18:03:46.766Z,23.80
2018-06-09T18:06:15.420Z,23.70
2018-06-09T18:08:44.476Z,23.70
2018-06-09T18:11:13.145Z,23.70
2018-06-09T18:13:42.174Z,23.60
2018-06-09T18:16:11.566Z,23.60
2018-06-09T18:18:40.242Z,23.50
2018-06-09T18:21:09.035Z,23.50
2018-06-09T18:23:37.735Z,23.40
2018-06-09T18:26:06.534Z,23.30
2018-06-09T18:28:35.224Z,23.30
2018-06-09T18:31:04.406Z,23.40
2018-06-09T18:33:33.582Z,23.40
2018-06-09T18:36:03.561Z,23.40
2018-06-09T18:38:32.342Z,23.30
2018-06-09T18:41:01.352Z,23.40
2018-06-09T18:43:30.552Z,23.40
2018-06-09T18:46:00.073Z,23.40
2018-06-09T18:48:29.076Z,23.40
2018-06-09T18:50:58.413Z,23.40
2018-06-09T18:53:27.228Z,23.30
2018-06-09T18:55:57.070Z,23.30
2018-06-09T18:58:26.384Z,23.30
2018-06-09T19:00:55.201Z,23.30
2018-06-09T19:03:23.836Z,23.40
2018-06-09T19:05:52.506Z,23.30
2018-06-09T19:08:21.160Z,23.10
2018-06-09T19:10:49.768Z,23.10
2018-06-09T19:13:19.333Z,23.00
2018-06-09T19:15:48.066Z,22.90
2018-06-09T19:18:16.805Z,22.90
2018-06-09T19:20:45.478Z,22.80
2018-06-09T19:23:14.139Z,22.80
2018-06-09T19:25:42.928Z,22.70
2018-06-09T19:28:11.686Z,22.60
2018-06-09T19:30:40.371Z,22.60
2018-06-09T19:33:09.187Z,22.60
2018-06-09T19:35:38.315Z,22.60
2018-06-09T19:38:07.005Z,22.50
2018-06-09T19:40:35.701Z,22.50
2018-06-09T19:43:04.358Z,22.50
2018-06-09T19:45:33.112Z,22.40
2018-06-09T19:48:01.832Z,22.40
2018-06-09T19:50:30.542Z,22.30
2018-06-09T19:52:59.366Z,22.30
2018-06-09T19:55:28.134Z,22.20
2018-06-09T19:57:57.136Z,22.10
2018-06-09T20:00:25.874Z,22.10
2018-06-09T20:02:56.908Z,22.00
2018-06-09T20:05:25.610Z,21.90
2018-06-09T20:07:54.297Z,21.90
2018-06-09T20:10:23.107Z,21.80
2018-06-09T20:12:51.907Z,21.70
2018-06-09T20:15:20.651Z,21.70
2018-06-09T20:17:49.361Z,21.70
2018-06-09T20:20:18.034Z,21.70
2018-06-09T20:22:46.758Z,21.70
2018-06-09T20:25:15.711Z,21.60
2018-06-09T20:27:44.388Z,21.50
2018-06-09T20:30:13.064Z,21.50
2018-06-09T20:32:42.116Z,21.50
2018-06-09T20:37:39.058Z,21.50
2018-06-09T20:40:07.735Z,21.50
2018-06-09T20:42:36.837Z,21.50
2018-06-09T20:45:05.478Z,21.60
2018-06-09T20:47:34.312Z,21.50
2018-06-09T20:50:03.172Z,21.60
2018-06-09T20:52:32.052Z,21.60
2018-06-09T20:55:00.885Z,21.60
2018-06-09T20:57:29.673Z,21.60
2018-06-09T20:59:58.469Z,21.50
2018-06-09T21:02:27.152Z,21.60
2018-06-09T21:04:55.777Z,21.60
2018-06-09T21:07:25.446Z,21.60
2018-06-09T21:09:54.294Z,21.70
2018-06-09T21:12:22.977Z,21.60
2018-06-09T21:14:51.825Z,21.70
2018-06-09T21:17:20.721Z,21.70
2018-06-09T21:19:50.030Z,21.60
2018-06-09T21:22:18.965Z,21.60
2018-06-09T21:27:21.406Z,21.70
2018-06-09T21:29:55.264Z,21.60
2018-06-09T21:32:29.378Z,21.60
2018-06-09T21:35:14.855Z,21.60
2018-06-09T21:37:47.255Z,21.70
2018-06-09T21:40:21.373Z,21.60
2018-06-09T21:42:55.987Z,21.70
2018-06-09T21:45:29.339Z,21.70
2018-06-09T21:47:58.189Z,21.60
2018-06-09T21:50:27.159Z,21.60
2018-06-09T21:52:56.031Z,21.50
2018-06-09T21:55:25.298Z,21.50
2018-06-09T21:57:53.952Z,21.50
2018-06-09T22:00:26.835Z,21.40
2018-06-09T22:02:56.143Z,21.40
2018-06-09T22:05:24.769Z,21.30
2018-06-09T22:07:53.851Z,21.30
2018-06-09T22:10:23.407Z,21.30
2018-06-09T22:12:53.855Z,21.20
2018-06-09T22:15:22.487Z,21.20
2018-06-09T22:17:51.702Z,21.10
2018-06-09T22:20:20.465Z,21.00
2018-06-09T22:22:49.269Z,21.00
2018-06-09T22:26:27.101Z,21.00
2018-06-09T22:28:55.853Z,20.80
2018-06-09T22:31:24.493Z,20.80
2018-06-09T22:33:53.274Z,20.70
2018-06-09T22:36:21.946Z,20.70
2018-06-09T22:38:50.734Z,20.60
2018-06-09T22:41:19.636Z,20.60
2018-06-09T22:43:48.475Z,20.60
2018-06-09T22:46:17.319Z,20.50
2018-06-09T22:48:45.971Z,20.40
2018-06-09T22:51:14.626Z,20.40
2018-06-09T22:53:43.469Z,20.40
2018-06-09T22:56:12.262Z,20.30
2018-06-09T22:58:41.032Z,20.30
2018-06-09T23:01:09.740Z,20.20
2018-06-09T23:03:38.392Z,20.20
2018-06-09T23:06:07.151Z,20.20
2018-06-09T23:08:35.847Z,20.20
2018-06-09T23:11:04.507Z,20.10
2018-06-09T23:13:33.158Z,20.00
2018-06-09T23:16:02.057Z,20.00
2018-06-09T23:18:30.756Z,19.90
2018-06-09T23:20:59.621Z,19.90
2018-06-09T23:23:28.334Z,19.90
2018-06-09T23:25:57.206Z,19.80
2018-06-09T23:28:25.822Z,19.80
2018-06-09T23:30:54.564Z,19.70
2018-06-09T23:33:23.207Z,19.70
2018-06-09T23:35:52.205Z,19.60
2018-06-09T23:38:20.881Z,19.50
2018-06-09T23:40:49.579Z,19.50
2018-06-09T23:43:18.299Z,19.40
2018-06-09T23:45:46.987Z,19.30
2018-06-09T23:48:15.738Z,19.20
2018-06-09T23:50:44.362Z,19.20
2018-06-09T23:53:13.001Z,19.10
2018-06-09T23:55:41.609Z,19.10
2018-06-09T23:58:10.237Z,19.00
